Time;durP1;ratioP1;P1;durP2;ratioP2;P2;SDS_P1;SDS_P2;PMS_P1;PMS_P2;Temp;Humidity;BMP_temperature;BMP_pressure;BME280_temperature;BME280_humidity;BME280_pressure;Samples;Min_cycle;Max_cycle;Signal;HPM_P1;HPM_P2
2022/08/25 00:00:14;;;;;;;;;;;;;;;;;;21253829;27;19991;-55
2022/08/25 00:10:16;;;;;;;;;;;;;;;;;;21253177;27;20348;-55
2022/08/25 00:20:17;;;;;;;;;;;;;;;;;;21252546;27;20450;-56
2022/08/25 00:30:19;;;;;;;;;;;;;;;;;;21252788;27;19945;-56
2022/08/25 00:40:21;;;;;;;;;;;;;;;;;;21250627;27;19923;-55
2022/08/25 00:50:23;;;;;;;;;;;;;;;;;;21249301;27;19923;-55
2022/08/25 01:00:26;;;;;;;;;;;;;;;;;;21248575;27;19923;-54
2022/08/25 01:10:28;;;;;;;;;;;;;;;;;;21250077;27;20224;-55
2022/08/25 01:20:31;;;;;;;;;;;;;;;;;;21248169;27;19924;-57
2022/08/25 01:30:35;;;;;;;;;;;;;;;;;;21247340;27;19923;-61
2022/08/25 01:40:38;;;;;;;;;;;;;;;;;;21247449;28;19931;-61
2022/08/25 01:50:40;;;;;;;;;;;;;;;;;;21247689;28;19974;-61
2022/08/25 02:00:42;;;;;;;;;;;;;;;;;;21268126;27;19924;-58
2022/08/25 02:10:45;;;;;;;;;;;;;;;;;;21270802;27;19930;-61
2022/08/25 02:20:47;;;;;;;;;;;;;;;;;;21262805;27;20389;-57
2022/08/25 02:30:51;;;;;;;;;;;;;;;;;;21261109;27;19946;-57
2022/08/25 02:40:54;;;;;;;;;;;;;;;;;;21260413;27;19924;-61
2022/08/25 02:50:56;;;;;;;;;;;;;;;;;;21260748;27;20333;-56
2022/08/25 03:00:58;;;;;;;;;;;;;;;;;;21259419;27;19923;-55
2022/08/25 03:11:01;;;;;;;;;;;;;;;;;;21257725;27;20017;-56
2022/08/25 03:21:02;;;;;;;;;;;;;;;;;;21258688;27;20038;-56
2022/08/25 03:31:07;;;;;;;;;;;;;;;;;;21257540;27;20201;-57
2022/08/25 03:41:10;;;;;;;;;;;;;;;;;;21255256;27;19931;-55
2022/08/25 03:51:13;;;;;;;;;;;;;;;;;;21254314;27;20075;-55
2022/08/25 04:01:14;;;;;;;;;;;;;;;;;;21253369;27;20272;-56
2022/08/25 04:11:16;;;;;;;;;;;;;;;;;;21253433;27;20379;-55
2022/08/25 04:21:19;;;;;;;;;;;;;;;;;;21251647;27;19927;-54
2022/08/25 04:31:21;;;;;;;;;;;;;;;;;;21250664;27;19924;-57
2022/08/25 04:41:23;;;;;;;;;;;;;;;;;;21250876;27;20279;-57
2022/08/25 04:51:28;;;;;;;;;;;;;;;;;;21249819;27;19962;-56
2022/08/25 05:01:30;;;;;;;;;;;;;;;;;;21238249;27;19928;-57
2022/08/25 05:11:32;;;;;;;;;;;;;;;;;;21164132;28;20432;-55
2022/08/25 05:21:36;;;;;;;;;;;;;;;;;;21163002;28;19931;-56
2022/08/25 05:31:39;;;;;;;;;;;;;;;;;;21162353;28;19981;-60
2022/08/25 05:41:41;;;;;;;;;;;;;;;;;;21163786;28;19924;-55
2022/08/25 05:51:43;;;;;;;;;;;;;;;;;;21162070;28;19962;-59
2022/08/25 06:12:06;;;;;;;;;;;;;;;;;;21246036;28;19931;-56
2022/08/25 06:22:08;;;;;;;;;;;;;;;;;;21245249;28;19923;-56
2022/08/25 06:32:10;;;;;;;;;;;;;;;;;;21227150;28;19934;-60
2022/08/25 06:42:12;;;;;;;;;;;;;;;;;;21248302;27;19971;-55
2022/08/25 06:52:14;;;;;;;;;;;;;;;;;;21259008;27;19945;-59
2022/08/25 07:02:16;;;;;;;;;;;;;;;;;;21258098;27;19931;-53
2022/08/25 07:12:18;;;;;;;;;;;;;;;;;;21257162;27;19927;-55
2022/08/25 07:22:20;;;;;;;;;;;;;;;;;;21238480;27;19988;-55
2022/08/25 07:32:22;;;;;;;;;;;;;;;;;;21255989;27;19928;-54
2022/08/25 07:42:26;;;;;;;;;;;;;;;;;;21255780;27;20091;-55
2022/08/25 07:52:29;;;;;;;;;;;;;;;;;;21255275;27;19967;-55
2022/08/25 08:02:31;;;;;;;;;;;;;;;;;;21253785;27;19968;-56
2022/08/25 08:12:33;;;;;;;;;;;;;;;;;;21253489;27;20302;-54
2022/08/25 08:22:35;;;;;;;;;;;;;;;;;;21252606;27;20268;-55
2022/08/25 08:32:37;;;;;;;;;;;;;;;;;;21251490;27;19923;-56
2022/08/25 08:42:41;;;;;;;;;;;;;;;;;;21251382;27;20310;-55
2022/08/25 08:52:43;;;;;;;;;;;;;;;;;;21250503;27;19938;-56
2022/08/25 09:02:45;;;;;;;;;;;;;;;;;;21226887;27;20037;-56
2022/08/25 09:12:46;;;;;;;;;;;;;;;;;;21163891;28;19977;-58
2022/08/25 09:22:49;;;;;;;;;;;;;;;;;;21162371;28;20295;-58
2022/08/25 09:33:01;;;;;;;;;;;;;;;;;;21162415;28;19924;-56
2022/08/25 09:43:04;;;;;;;;;;;;;;;;;;21162760;28;20370;-55
2022/08/25 09:53:06;;;;;;;;;;;;;;;;;;21161211;28;20287;-55
2022/08/25 10:03:09;;;;;;;;;;;;;;;;;;21181765;28;19939;-57
2022/08/25 10:13:10;;;;;;;;;;;;;;;;;;21227480;28;20362;-55
2022/08/25 10:23:12;;;;;;;;;;;;;;;;;;21261122;27;19923;-56
2022/08/25 10:33:14;;;;;;;;;;;;;;;;;;21260844;27;20339;-57
2022/08/25 10:43:16;;;;;;;;;;;;;;;;;;21259950;27;19923;-55
2022/08/25 10:53:18;;;;;;;;;;;;;;;;;;21240518;27;19923;-56
2022/08/25 11:03:20;;;;;;;;;;;;;;;;;;21259689;27;19979;-57
2022/08/25 11:13:22;;;;;;;;;;;;;;;;;;21259280;27;19930;-56
2022/08/25 11:23:24;;;;;;;;;;;;;;;;;;21258693;27;20427;-55
2022/08/25 11:33:26;;;;;;;;;;;;;;;;;;21266181;27;20000;-56
2022/08/25 11:43:28;;;;;;;;;;;;;;;;;;21257905;27;20340;-55
2022/08/25 11:53:30;;;;;;;;;;;;;;;;;;21255696;27;19923;-57
2022/08/25 12:03:35;;;;;;;;;;;;;;;;;;21254360;27;19930;-56
2022/08/25 12:13:37;;;;;;;;;;;;;;;;;;21253840;27;20042;-55
2022/08/25 12:23:41;;;;;;;;;;;;;;;;;;21251328;27;19924;-57
2022/08/25 12:33:43;;;;;;;;;;;;;;;;;;21251122;27;19923;-54
2022/08/25 12:43:46;;;;;;;;;;;;;;;;;;21251634;27;20240;-55
2022/08/25 12:53:48;;;;;;;;;;;;;;;;;;21249006;27;20014;-56
2022/08/25 13:03:50;;;;;;;;;;;;;;;;;;21218416;27;19963;-55
2022/08/25 13:13:52;;;;;;;;;;;;;;;;;;21163467;28;19964;-55
2022/08/25 13:23:54;;;;;;;;;;;;;;;;;;21162774;28;20416;-55
2022/08/25 13:33:57;;;;;;;;;;;;;;;;;;21161989;28;20026;-56
2022/08/25 13:43:58;;;;;;;;;;;;;;;;;;21161836;28;20022;-56
2022/08/25 13:54:00;;;;;;;;;;;;;;;;;;21172308;28;19923;-56
2022/08/25 14:04:02;;;;;;;;;;;;;;;;;;21178534;28;20392;-57
2022/08/25 14:14:03;;;;;;;;;;;;;;;;;;21177553;28;19924;-57
2022/08/25 14:24:06;;;;;;;;;;;;;;;;;;21177059;28;19958;-55
2022/08/25 14:34:08;;;;;;;;;;;;;;;;;;21178708;28;19976;-56
2022/08/25 14:44:10;;;;;;;;;;;;;;;;;;21175608;28;20429;-55
2022/08/25 14:54:13;;;;;;;;;;;;;;;;;;21175773;28;19949;-65
2022/08/25 15:04:15;;;;;;;;;;;;;;;;;;21203722;27;19929;-55
2022/08/25 15:14:17;;;;;;;;;;;;;;;;;;21257798;27;19923;-56
2022/08/25 15:24:20;;;;;;;;;;;;;;;;;;21256701;27;20262;-56
2022/08/25 15:34:22;;;;;;;;;;;;;;;;;;21257137;27;19923;-55
2022/08/25 15:44:25;;;;;;;;;;;;;;;;;;21255401;27;19923;-55
2022/08/25 15:54:27;;;;;;;;;;;;;;;;;;21254104;27;19924;-55
2022/08/25 16:04:29;;;;;;;;;;;;;;;;;;21253875;27;20016;-55
2022/08/25 16:14:30;;;;;;;;;;;;;;;;;;21252302;27;19931;-57
2022/08/25 16:24:32;;;;;;;;;;;;;;;;;;21251834;27;19931;-56
2022/08/25 16:34:35;;;;;;;;;;;;;;;;;;21251909;27;19923;-55
2022/08/25 16:44:38;;;;;;;;;;;;;;;;;;21251567;27;19968;-55
2022/08/25 17:05:00;;;;;;;;;;;;;;;;;;21249367;27;19946;-56
2022/08/25 17:15:01;;;;;;;;;;;;;;;;;;21248116;27;19934;-55
2022/08/25 17:25:03;;;;;;;;;;;;;;;;;;21249017;27;19938;-56
2022/08/25 17:35:05;;;;;;;;;;;;;;;;;;21249682;27;20041;-56
2022/08/25 17:45:06;;;;;;;;;;;;;;;;;;21248797;28;19959;-56
2022/08/25 17:55:08;;;;;;;;;;;;;;;;;;21248004;28;19959;-53
2022/08/25 18:05:09;;;;;;;;;;;;;;;;;;21248400;28;19984;-57
2022/08/25 18:15:11;;;;;;;;;;;;;;;;;;21246504;28;19931;-56
2022/08/25 18:25:13;;;;;;;;;;;;;;;;;;21245208;28;20029;-55
2022/08/25 18:35:14;;;;;;;;;;;;;;;;;;21245741;27;19923;-57
2022/08/25 18:45:16;;;;;;;;;;;;;;;;;;21260648;27;19931;-56
2022/08/25 18:55:18;;;;;;;;;;;;;;;;;;21260189;27;19938;-55
2022/08/25 19:05:21;;;;;;;;;;;;;;;;;;21260678;27;20027;-55
2022/08/25 19:15:23;;;;;;;;;;;;;;;;;;21257024;27;19986;-54
2022/08/25 19:25:24;;;;;;;;;;;;;;;;;;21256499;27;19924;-59
2022/08/25 19:35:26;;;;;;;;;;;;;;;;;;21256187;27;20014;-54
2022/08/25 19:45:28;;;;;;;;;;;;;;;;;;21255909;27;19931;-57
2022/08/25 19:55:29;;;;;;;;;;;;;;;;;;21255664;27;20017;-56
2022/08/25 20:05:31;;;;;;;;;;;;;;;;;;21222514;27;19924;-56
2022/08/25 20:15:33;;;;;;;;;;;;;;;;;;21170309;28;19930;-56
2022/08/25 20:25:35;;;;;;;;;;;;;;;;;;21167686;28;19931;-55
2022/08/25 20:35:36;;;;;;;;;;;;;;;;;;21166617;28;19963;-56
2022/08/25 20:45:38;;;;;;;;;;;;;;;;;;21167448;28;20333;-54
2022/08/25 20:55:39;;;;;;;;;;;;;;;;;;21165985;28;19924;-56
2022/08/25 21:05:41;;;;;;;;;;;;;;;;;;21166657;28;19928;-56
2022/08/25 21:15:47;;;;;;;;;;;;;;;;;;21164206;28;20379;-53
2022/08/25 21:25:49;;;;;;;;;;;;;;;;;;21163155;28;19924;-56
2022/08/25 21:35:51;;;;;;;;;;;;;;;;;;21162952;28;19924;-55
2022/08/25 21:45:53;;;;;;;;;;;;;;;;;;21162298;28;19924;-56
2022/08/25 21:55:55;;;;;;;;;;;;;;;;;;21162980;28;20328;-55
2022/08/25 22:05:57;;;;;;;;;;;;;;;;;;21161394;28;19924;-59
2022/08/25 22:15:59;;;;;;;;;;;;;;;;;;21172096;28;19936;-55
2022/08/25 22:26:01;;;;;;;;;;;;;;;;;;21177903;28;19978;-56
2022/08/25 22:36:04;;;;;;;;;;;;;;;;;;21176580;28;19930;-55
2022/08/25 22:46:06;;;;;;;;;;;;;;;;;;21157907;28;19939;-56
2022/08/25 22:56:08;;;;;;;;;;;;;;;;;;21175110;28;20361;-54
2022/08/25 23:06:09;;;;;;;;;;;;;;;;;;21174596;28;20006;-57
2022/08/25 23:16:11;;;;;;;;;;;;;;;;;;21174123;28;20026;-54
2022/08/25 23:26:12;;;;;;;;;;;;;;;;;;21154503;28;20016;-55
2022/08/25 23:36:14;;;;;;;;;;;;;;;;;;21172410;28;19970;-55
2022/08/25 23:46:15;;;;;;;;;;;;;;;;;;21172005;28;20447;-54
2022/08/25 23:56:17;;;;;;;;;;;;;;;;;;21170247;28;19923;-57
